This is the latest recevied weather packets stored in our database for station/object K0WOI. If no packets are shown the sender has not sent any weather packets the latest 10 day(s).
| Time | Temp. | Humidity | Pressure | Rain* | Wind** | Luminosity | Snow |
|---|---|---|---|---|---|---|---|
| 1778011773 | 15° C | 33% | 1010.5 hPa | 0 mm | - | 241 W/m² | - |
| 1778011470 | 15.56° C | 30% | 1010.5 hPa | 0 mm | - | 469 W/m² | - |
| 1778011165 | 15.56° C | 31% | 1010.5 hPa | 0 mm | - | 279 W/m² | - |
| 1778010863 | 15.56° C | 30% | 1010.4 hPa | 0 mm | - | 531 W/m² | - |
| 1778010560 | 16.11° C | 29% | 1010.7 hPa | 0 mm | - | 525 W/m² | - |
| 1778010257 | 15.56° C | 30% | 1010.4 hPa | 0 mm | - | 674 W/m² | - |
| 1778009957 | 16.11° C | 33% | 1010.6 hPa | 0 mm | - | 618 W/m² | - |
| 1778009655 | 15.56° C | 31% | 1010.7 hPa | 0 mm | - | 626 W/m² | - |
| 1778009353 | 15° C | 32% | 1010.3 hPa | 0 mm | - | 464 W/m² | - |
| 1778009051 | 15° C | 31% | 1010.3 hPa | 0 mm | - | 506 W/m² | - |
| 1778008748 | 16.11° C | 33% | 1010.8 hPa | 0 mm | - | 613 W/m² | - |
| 1778008447 | 15° C | 34% | 1010.6 hPa | 0 mm | - | 177 W/m² | - |
| 1778008143 | 15.56° C | 32% | 1010.8 hPa | 0 mm | - | 279 W/m² | - |
| 1778007838 | 15.56° C | 35% | 1010.7 hPa | 0 mm | - | 330 W/m² | - |
| 1778007534 | 15° C | 35% | 1010.7 hPa | 0 mm | - | 441 W/m² | - |
| 1778007231 | 15.56° C | 33% | 1010.9 hPa | 0 mm | - | 623 W/m² | - |
| 1778006927 | 15° C | 37% | 1010.8 hPa | 0 mm | - | 501 W/m² | - |
| 1778006624 | 15° C | 37% | 1010.6 hPa | 0 mm | - | 708 W/m² | - |
| 1778006321 | 15° C | 33% | 1010.7 hPa | 0 mm | - | 610 W/m² | - |
| 1778006018 | 15° C | 33% | 1010.8 hPa | 0 mm | - | 649 W/m² | - |
| 1778005714 | 14.44° C | 34% | 1010.9 hPa | 0 mm | - | 218 W/m² | - |
| 1778005411 | 14.44° C | 33% | 1010.8 hPa | 0 mm | - | 237 W/m² | - |
| 1778005108 | 15° C | 35% | 1011.2 hPa | 0 mm | - | 515 W/m² | - |
| 1778004805 | 14.44° C | 36% | 1011 hPa | 0 mm | - | 632 W/m² | - |
| 1778004502 | 13.89° C | 35% | 1011.3 hPa | 0 mm | - | 231 W/m² | - |
* Rain latest hour (hover to see other rain measurements)
** Current wind speed in m/s (hover to see current wind gust speed)